Time;durP1;ratioP1;P1;durP2;ratioP2;P2;SDS_P1;SDS_P2;PMS_P1;PMS_P2;Temp;Humidity;BMP_temperature;BMP_pressure;BME280_temperature;BME280_humidity;BME280_pressure;Samples;Min_cycle;Max_cycle;Signal;HPM_P1;HPM_P2
2024/01/29 00:00:47;;;;;;;;;;;;;;;;;;5154725;27;19908;-74
2024/01/29 00:03:13;;;;;;;;;;;;;;;;;;5155245;27;20405;-73
2024/01/29 00:05:39;;;;;;;;;;;;;;;;;;5155100;27;20271;-76
2024/01/29 00:08:05;;;;;;;;;;;;;;;;;;5154984;27;19913;-73
2024/01/29 00:10:31;;;;;;;;;;;;;;;;;;5155065;27;19915;-74
2024/01/29 00:12:57;;;;;;;;;;;;;;;;;;5154748;27;19920;-74
2024/01/29 00:15:23;;;;;;;;;;;;;;;;;;5154562;27;19914;-73
2024/01/29 00:17:49;;;;;;;;;;;;;;;;;;5155055;27;19911;-73
2024/01/29 00:20:15;;;;;;;;;;;;;;;;;;5136367;27;19914;-73
2024/01/29 00:22:41;;;;;;;;;;;;;;;;;;5136014;27;19938;-73
2024/01/29 00:25:07;;;;;;;;;;;;;;;;;;5136593;27;20362;-73
2024/01/29 00:27:33;;;;;;;;;;;;;;;;;;5155114;27;19914;-73
2024/01/29 00:30:01;;;;;;;;;;;;;;;;;;5154535;27;19907;-73
2024/01/29 00:32:27;;;;;;;;;;;;;;;;;;5154901;27;20371;-73
2024/01/29 00:34:53;;;;;;;;;;;;;;;;;;5154772;27;19941;-73
2024/01/29 00:37:19;;;;;;;;;;;;;;;;;;5137632;27;19907;-73
2024/01/29 00:39:45;;;;;;;;;;;;;;;;;;5139911;27;20282;-75
2024/01/29 00:42:11;;;;;;;;;;;;;;;;;;5157976;27;19985;-74
2024/01/29 00:44:37;;;;;;;;;;;;;;;;;;5158330;27;19908;-74
2024/01/29 00:47:03;;;;;;;;;;;;;;;;;;5158349;27;19913;-74
2024/01/29 00:49:32;;;;;;;;;;;;;;;;;;5157957;27;19907;-73
2024/01/29 00:51:58;;;;;;;;;;;;;;;;;;5158575;27;19907;-74
2024/01/29 00:54:24;;;;;;;;;;;;;;;;;;5158049;27;19915;-74
2024/01/29 00:56:50;;;;;;;;;;;;;;;;;;5157769;27;19907;-74
2024/01/29 00:59:16;;;;;;;;;;;;;;;;;;5158073;27;19918;-73
2024/01/29 01:01:42;;;;;;;;;;;;;;;;;;5158005;27;20282;-74
2024/01/29 01:04:08;;;;;;;;;;;;;;;;;;5157645;27;19951;-73
2024/01/29 01:06:34;;;;;;;;;;;;;;;;;;5139378;27;19907;-73
2024/01/29 01:09:00;;;;;;;;;;;;;;;;;;5157936;27;19914;-74
2024/01/29 01:11:26;;;;;;;;;;;;;;;;;;5157465;27;19958;-72
2024/01/29 01:13:53;;;;;;;;;;;;;;;;;;5139144;27;20351;-74
2024/01/29 01:16:19;;;;;;;;;;;;;;;;;;5157668;27;19971;-73
2024/01/29 01:18:45;;;;;;;;;;;;;;;;;;5157397;27;19907;-73
2024/01/29 01:21:11;;;;;;;;;;;;;;;;;;5157659;27;19922;-73
2024/01/29 01:23:38;;;;;;;;;;;;;;;;;;5157951;27;19907;-73
2024/01/29 01:26:04;;;;;;;;;;;;;;;;;;5157184;27;19960;-73
2024/01/29 01:28:30;;;;;;;;;;;;;;;;;;5157517;27;19907;-73
2024/01/29 01:30:56;;;;;;;;;;;;;;;;;;5157642;27;19917;-74
2024/01/29 01:33:22;;;;;;;;;;;;;;;;;;5157002;27;19916;-74
2024/01/29 01:35:48;;;;;;;;;;;;;;;;;;5157373;27;19960;-74
2024/01/29 01:38:14;;;;;;;;;;;;;;;;;;5138813;27;19950;-73
2024/01/29 01:40:40;;;;;;;;;;;;;;;;;;5156886;27;19908;-74
2024/01/29 01:43:06;;;;;;;;;;;;;;;;;;5157255;27;20374;-74
2024/01/29 01:45:31;;;;;;;;;;;;;;;;;;5156736;27;20363;-74
2024/01/29 01:47:57;;;;;;;;;;;;;;;;;;5138432;27;20270;-74
2024/01/29 01:50:23;;;;;;;;;;;;;;;;;;5157113;27;20082;-73
2024/01/29 01:52:49;;;;;;;;;;;;;;;;;;5137903;27;19907;-74
2024/01/29 01:55:15;;;;;;;;;;;;;;;;;;5156939;27;20366;-74
2024/01/29 01:57:41;;;;;;;;;;;;;;;;;;5157469;27;20355;-74
2024/01/29 02:00:07;;;;;;;;;;;;;;;;;;5156568;27;20290;-74
2024/01/29 02:02:33;;;;;;;;;;;;;;;;;;5156919;27;19914;-74
2024/01/29 02:04:59;;;;;;;;;;;;;;;;;;5156750;27;19954;-74
2024/01/29 02:07:25;;;;;;;;;;;;;;;;;;5156318;27;19922;-73
2024/01/29 02:09:51;;;;;;;;;;;;;;;;;;5156953;27;19907;-73
2024/01/29 02:12:19;;;;;;;;;;;;;;;;;;5156341;27;19926;-72
2024/01/29 02:14:45;;;;;;;;;;;;;;;;;;5156343;27;19958;-75
2024/01/29 02:17:11;;;;;;;;;;;;;;;;;;5156530;27;19975;-72
2024/01/29 02:19:37;;;;;;;;;;;;;;;;;;5137937;27;19915;-73
2024/01/29 02:22:03;;;;;;;;;;;;;;;;;;5137528;27;20014;-72
2024/01/29 02:24:29;;;;;;;;;;;;;;;;;;5156618;27;19961;-72
2024/01/29 02:26:55;;;;;;;;;;;;;;;;;;5156475;27;19913;-73
2024/01/29 02:29:21;;;;;;;;;;;;;;;;;;5155891;27;19932;-73
2024/01/29 02:31:47;;;;;;;;;;;;;;;;;;5156193;27;20404;-73
2024/01/29 02:34:13;;;;;;;;;;;;;;;;;;5156528;27;20264;-72
2024/01/29 02:36:39;;;;;;;;;;;;;;;;;;5155784;27;19911;-73
2024/01/29 02:39:06;;;;;;;;;;;;;;;;;;5156101;27;19907;-73
2024/01/29 02:41:32;;;;;;;;;;;;;;;;;;5156058;27;19907;-73
2024/01/29 02:43:58;;;;;;;;;;;;;;;;;;5155676;27;19929;-74
2024/01/29 02:46:24;;;;;;;;;;;;;;;;;;5156303;27;20270;-73
2024/01/29 02:48:50;;;;;;;;;;;;;;;;;;5155749;27;19930;-74
2024/01/29 02:51:16;;;;;;;;;;;;;;;;;;5137422;27;19911;-74
2024/01/29 02:53:42;;;;;;;;;;;;;;;;;;5137362;27;19922;-74
2024/01/29 02:56:08;;;;;;;;;;;;;;;;;;5155502;27;20347;-74
2024/01/29 02:58:34;;;;;;;;;;;;;;;;;;5156033;27;20355;-74
2024/01/29 03:01:00;;;;;;;;;;;;;;;;;;5155235;27;19907;-74
2024/01/29 03:03:26;;;;;;;;;;;;;;;;;;5155358;27;19976;-74
2024/01/29 03:05:52;;;;;;;;;;;;;;;;;;5155859;27;19954;-74
2024/01/29 03:08:18;;;;;;;;;;;;;;;;;;5155655;27;19933;-74
2024/01/29 03:10:44;;;;;;;;;;;;;;;;;;5155358;27;19959;-74
2024/01/29 03:13:10;;;;;;;;;;;;;;;;;;5155377;27;19966;-74
2024/01/29 03:15:36;;;;;;;;;;;;;;;;;;5155578;27;19915;-74
2024/01/29 03:18:01;;;;;;;;;;;;;;;;;;5155351;27;19907;-74
2024/01/29 03:20:27;;;;;;;;;;;;;;;;;;5136898;27;19907;-74
2024/01/29 03:22:53;;;;;;;;;;;;;;;;;;5136935;27;20347;-74
2024/01/29 03:25:19;;;;;;;;;;;;;;;;;;5155298;27;20435;-74
2024/01/29 03:27:45;;;;;;;;;;;;;;;;;;5155850;27;19907;-74
2024/01/29 03:30:11;;;;;;;;;;;;;;;;;;5155409;27;19921;-73
2024/01/29 03:32:37;;;;;;;;;;;;;;;;;;5154960;27;19995;-74
2024/01/29 03:35:03;;;;;;;;;;;;;;;;;;5155385;27;19907;-74
2024/01/29 03:37:29;;;;;;;;;;;;;;;;;;5155320;27;19913;-74
2024/01/29 03:39:55;;;;;;;;;;;;;;;;;;5154978;27;19907;-74
2024/01/29 03:42:21;;;;;;;;;;;;;;;;;;5136893;27;19907;-74
2024/01/29 03:44:47;;;;;;;;;;;;;;;;;;5155324;27;19958;-74
2024/01/29 03:47:13;;;;;;;;;;;;;;;;;;5155000;27;19907;-74
2024/01/29 03:49:39;;;;;;;;;;;;;;;;;;5155464;27;19907;-74
2024/01/29 03:52:05;;;;;;;;;;;;;;;;;;5154942;27;20405;-74
2024/01/29 03:54:31;;;;;;;;;;;;;;;;;;5155104;27;19915;-74
2024/01/29 03:56:57;;;;;;;;;;;;;;;;;;5155541;27;19907;-74
2024/01/29 03:59:23;;;;;;;;;;;;;;;;;;5154917;27;19907;-74
2024/01/29 04:01:49;;;;;;;;;;;;;;;;;;5155365;27;19914;-74
2024/01/29 04:04:15;;;;;;;;;;;;;;;;;;5155093;27;20442;-74
2024/01/29 04:06:41;;;;;;;;;;;;;;;;;;5136135;27;19938;-74
2024/01/29 04:09:09;;;;;;;;;;;;;;;;;;5155043;27;19959;-74
2024/01/29 04:11:35;;;;;;;;;;;;;;;;;;5155544;27;19907;-74
2024/01/29 04:14:01;;;;;;;;;;;;;;;;;;5158586;27;20312;-74
2024/01/29 04:16:27;;;;;;;;;;;;;;;;;;5158964;27;19993;-74
2024/01/29 04:18:53;;;;;;;;;;;;;;;;;;5159336;27;20386;-74
2024/01/29 04:21:19;;;;;;;;;;;;;;;;;;5158706;27;20273;-74
2024/01/29 04:23:44;;;;;;;;;;;;;;;;;;5158734;27;20279;-74
2024/01/29 04:26:10;;;;;;;;;;;;;;;;;;5158728;27;19907;-74
2024/01/29 04:28:36;;;;;;;;;;;;;;;;;;5139746;27;19999;-74
2024/01/29 04:31:02;;;;;;;;;;;;;;;;;;5158850;27;19914;-74
2024/01/29 04:33:28;;;;;;;;;;;;;;;;;;5158878;27;20018;-74
2024/01/29 04:35:54;;;;;;;;;;;;;;;;;;5158276;27;19921;-74
2024/01/29 04:38:20;;;;;;;;;;;;;;;;;;5158577;27;19907;-75
2024/01/29 04:40:46;;;;;;;;;;;;;;;;;;5158516;27;20327;-75
2024/01/29 04:43:12;;;;;;;;;;;;;;;;;;5158033;27;19930;-74
2024/01/29 04:45:38;;;;;;;;;;;;;;;;;;5158379;27;19914;-74
2024/01/29 04:48:04;;;;;;;;;;;;;;;;;;5158306;27;19994;-74
2024/01/29 04:50:30;;;;;;;;;;;;;;;;;;5157883;27;19911;-74
2024/01/29 04:52:56;;;;;;;;;;;;;;;;;;5158095;27;19911;-74
2024/01/29 04:55:22;;;;;;;;;;;;;;;;;;5139259;27;19933;-74
2024/01/29 04:57:48;;;;;;;;;;;;;;;;;;5158133;27;20358;-74
2024/01/29 05:00:14;;;;;;;;;;;;;;;;;;5158731;27;20265;-75
2024/01/29 05:02:40;;;;;;;;;;;;;;;;;;5157758;27;19914;-75
2024/01/29 05:05:06;;;;;;;;;;;;;;;;;;5158050;27;19911;-75
2024/01/29 05:07:32;;;;;;;;;;;;;;;;;;5158345;27;20289;-73
2024/01/29 05:09:57;;;;;;;;;;;;;;;;;;5139029;27;19935;-74
2024/01/29 05:12:23;;;;;;;;;;;;;;;;;;5157741;27;19919;-75
2024/01/29 05:14:49;;;;;;;;;;;;;;;;;;5139211;27;19915;-75
2024/01/29 05:17:15;;;;;;;;;;;;;;;;;;5157371;27;19932;-74
2024/01/29 05:19:45;;;;;;;;;;;;;;;;;;5139150;27;19908;-73
2024/01/29 05:22:11;;;;;;;;;;;;;;;;;;5157271;27;19907;-73
2024/01/29 05:24:37;;;;;;;;;;;;;;;;;;5138751;27;20248;-73
2024/01/29 05:27:03;;;;;;;;;;;;;;;;;;5157483;27;19951;-73
2024/01/29 05:29:29;;;;;;;;;;;;;;;;;;5138855;27;19911;-74
2024/01/29 05:31:55;;;;;;;;;;;;;;;;;;5157021;27;19914;-73
2024/01/29 05:34:21;;;;;;;;;;;;;;;;;;5156471;27;19922;-73
2024/01/29 05:36:47;;;;;;;;;;;;;;;;;;5137579;27;19951;-73
2024/01/29 05:39:13;;;;;;;;;;;;;;;;;;5155345;27;20377;-73
2024/01/29 05:41:39;;;;;;;;;;;;;;;;;;5156909;27;20333;-73
2024/01/29 05:44:05;;;;;;;;;;;;;;;;;;5156454;27;19907;-73
2024/01/29 05:46:31;;;;;;;;;;;;;;;;;;5156148;27;19911;-72
2024/01/29 05:48:57;;;;;;;;;;;;;;;;;;5157447;27;19952;-73
2024/01/29 05:51:23;;;;;;;;;;;;;;;;;;5138589;27;19949;-72
2024/01/29 05:53:49;;;;;;;;;;;;;;;;;;5136794;27;19915;-73
2024/01/29 05:56:15;;;;;;;;;;;;;;;;;;5155173;27;20103;-73
2024/01/29 05:58:44;;;;;;;;;;;;;;;;;;5154749;27;19951;-73
2024/01/29 06:01:10;;;;;;;;;;;;;;;;;;5154934;27;19947;-74
2024/01/29 06:03:36;;;;;;;;;;;;;;;;;;5154830;27;20319;-74
2024/01/29 06:06:02;;;;;;;;;;;;;;;;;;5154403;27;19914;-73
2024/01/29 06:08:28;;;;;;;;;;;;;;;;;;5155348;27;19907;-73
2024/01/29 06:10:55;;;;;;;;;;;;;;;;;;5156674;27;19914;-73
2024/01/29 06:13:23;;;;;;;;;;;;;;;;;;5151956;27;19919;-74
2024/01/29 06:15:49;;;;;;;;;;;;;;;;;;5135637;27;19975;-76
2024/01/29 06:18:15;;;;;;;;;;;;;;;;;;5135477;27;19911;-78
2024/01/29 06:20:41;;;;;;;;;;;;;;;;;;5147641;27;20310;-77
2024/01/29 06:23:09;;;;;;;;;;;;;;;;;;5121795;27;19934;-79
2024/01/29 06:25:35;;;;;;;;;;;;;;;;;;5147686;27;20009;-77
2024/01/29 06:28:01;;;;;;;;;;;;;;;;;;5150789;27;19949;-74
2024/01/29 06:30:27;;;;;;;;;;;;;;;;;;5155885;27;19907;-74
2024/01/29 06:32:53;;;;;;;;;;;;;;;;;;5155970;27;19913;-74
2024/01/29 06:35:19;;;;;;;;;;;;;;;;;;5133355;27;21347;-71
2024/01/29 06:37:45;;;;;;;;;;;;;;;;;;5138839;27;19912;-69
2024/01/29 06:40:11;;;;;;;;;;;;;;;;;;5137129;27;19915;-69
2024/01/29 06:42:37;;;;;;;;;;;;;;;;;;5144431;27;19955;-69
2024/01/29 06:45:04;;;;;;;;;;;;;;;;;;5131454;27;19922;-69
2024/01/29 06:47:30;;;;;;;;;;;;;;;;;;5115083;27;20275;-72
2024/01/29 06:49:58;;;;;;;;;;;;;;;;;;5150459;27;19915;-72
2024/01/29 06:52:24;;;;;;;;;;;;;;;;;;5141259;27;20362;-70
2024/01/29 06:54:51;;;;;;;;;;;;;;;;;;5135539;27;20340;-69
2024/01/29 06:57:17;;;;;;;;;;;;;;;;;;5127532;27;20013;-69
2024/01/29 06:59:43;;;;;;;;;;;;;;;;;;5140345;27;19918;-71
2024/01/29 07:02:09;;;;;;;;;;;;;;;;;;5148191;27;19912;-74
2024/01/29 07:04:35;;;;;;;;;;;;;;;;;;5136860;27;19912;-71
2024/01/29 07:07:01;;;;;;;;;;;;;;;;;;5140467;27;20377;-69
2024/01/29 07:09:27;;;;;;;;;;;;;;;;;;5145288;27;20318;-70
2024/01/29 07:11:53;;;;;;;;;;;;;;;;;;5134697;27;20200;-69
2024/01/29 07:14:19;;;;;;;;;;;;;;;;;;5132837;27;19919;-68
2024/01/29 07:16:45;;;;;;;;;;;;;;;;;;5131547;27;19911;-70
2024/01/29 07:19:11;;;;;;;;;;;;;;;;;;5112185;27;20369;-70
2024/01/29 07:21:37;;;;;;;;;;;;;;;;;;5130815;27;19954;-69
2024/01/29 07:24:04;;;;;;;;;;;;;;;;;;5130531;27;19946;-69
2024/01/29 07:26:30;;;;;;;;;;;;;;;;;;5144495;27;19915;-70
2024/01/29 07:28:56;;;;;;;;;;;;;;;;;;5124783;27;19998;-70
2024/01/29 07:31:22;;;;;;;;;;;;;;;;;;5144624;27;20006;-69
2024/01/29 07:33:48;;;;;;;;;;;;;;;;;;5142066;27;19926;-72
2024/01/29 07:36:14;;;;;;;;;;;;;;;;;;5138639;27;19912;-69
2024/01/29 07:38:40;;;;;;;;;;;;;;;;;;5119958;28;19918;-69
2024/01/29 07:41:06;;;;;;;;;;;;;;;;;;5131010;27;20586;-68
2024/01/29 07:43:32;;;;;;;;;;;;;;;;;;5134622;27;19919;-70
2024/01/29 07:45:58;;;;;;;;;;;;;;;;;;5138131;27;20328;-72
2024/01/29 07:48:24;;;;;;;;;;;;;;;;;;5148136;27;19911;-70
2024/01/29 07:50:50;;;;;;;;;;;;;;;;;;5154924;27;19914;-70
2024/01/29 07:53:16;;;;;;;;;;;;;;;;;;5139413;27;20279;-70
2024/01/29 07:55:42;;;;;;;;;;;;;;;;;;5136670;27;19911;-70
2024/01/29 07:58:08;;;;;;;;;;;;;;;;;;5142092;27;19922;-69
2024/01/29 08:00:34;;;;;;;;;;;;;;;;;;5138354;27;19956;-70
2024/01/29 08:03:00;;;;;;;;;;;;;;;;;;5117847;27;20042;-72
2024/01/29 08:05:26;;;;;;;;;;;;;;;;;;5135293;27;20704;-70
2024/01/29 08:07:52;;;;;;;;;;;;;;;;;;5141742;27;20390;-70
2024/01/29 08:10:18;;;;;;;;;;;;;;;;;;5152458;27;20001;-71
2024/01/29 08:12:44;;;;;;;;;;;;;;;;;;5129762;27;20021;-69
2024/01/29 08:15:11;;;;;;;;;;;;;;;;;;5137522;27;19920;-70
2024/01/29 08:17:37;;;;;;;;;;;;;;;;;;5118833;27;20364;-71
2024/01/29 08:20:03;;;;;;;;;;;;;;;;;;5148164;27;19960;-71
2024/01/29 08:22:29;;;;;;;;;;;;;;;;;;5134234;27;20335;-70
2024/01/29 08:24:55;;;;;;;;;;;;;;;;;;5117881;27;19912;-69
2024/01/29 08:27:21;;;;;;;;;;;;;;;;;;5137457;27;20002;-70
2024/01/29 08:29:47;;;;;;;;;;;;;;;;;;5126016;27;19911;-71
2024/01/29 08:32:13;;;;;;;;;;;;;;;;;;5152992;27;19915;-68
2024/01/29 08:34:39;;;;;;;;;;;;;;;;;;5153863;27;19919;-69
2024/01/29 08:37:05;;;;;;;;;;;;;;;;;;5136488;27;19964;-69
2024/01/29 08:39:32;;;;;;;;;;;;;;;;;;5141495;27;19915;-69
2024/01/29 08:41:58;;;;;;;;;;;;;;;;;;5144562;27;20274;-69
2024/01/29 08:44:25;;;;;;;;;;;;;;;;;;5138140;27;19911;-69
2024/01/29 08:46:51;;;;;;;;;;;;;;;;;;5153942;27;19912;-72
2024/01/29 08:49:17;;;;;;;;;;;;;;;;;;5149567;27;20555;-69
2024/01/29 08:51:44;;;;;;;;;;;;;;;;;;5144786;27;19935;-72
2024/01/29 08:54:10;;;;;;;;;;;;;;;;;;5139662;27;20014;-75
2024/01/29 08:56:39;;;;;;;;;;;;;;;;;;5134815;27;20014;-75
2024/01/29 08:59:05;;;;;;;;;;;;;;;;;;5122343;27;19911;-76
2024/01/29 09:01:31;;;;;;;;;;;;;;;;;;5138059;27;19918;-75
2024/01/29 09:03:56;;;;;;;;;;;;;;;;;;5139241;27;19927;-74
2024/01/29 09:06:22;;;;;;;;;;;;;;;;;;5126002;27;19911;-74
2024/01/29 09:08:48;;;;;;;;;;;;;;;;;;5142380;27;19916;-75
2024/01/29 09:11:14;;;;;;;;;;;;;;;;;;5111333;27;19912;-74
2024/01/29 09:13:40;;;;;;;;;;;;;;;;;;5134948;27;19927;-76
2024/01/29 09:16:06;;;;;;;;;;;;;;;;;;5137019;27;20030;-74
2024/01/29 09:18:32;;;;;;;;;;;;;;;;;;5142633;27;19919;-75
2024/01/29 09:20:58;;;;;;;;;;;;;;;;;;5118041;27;19915;-71
2024/01/29 09:23:24;;;;;;;;;;;;;;;;;;5121480;27;19916;-70
2024/01/29 09:25:50;;;;;;;;;;;;;;;;;;5132931;27;19922;-71
2024/01/29 09:28:16;;;;;;;;;;;;;;;;;;5136009;27;20399;-74
2024/01/29 09:30:42;;;;;;;;;;;;;;;;;;5138672;27;19911;-75
2024/01/29 09:33:08;;;;;;;;;;;;;;;;;;5131601;27;19986;-71
2024/01/29 09:35:34;;;;;;;;;;;;;;;;;;5136425;27;19911;-72
2024/01/29 09:38:00;;;;;;;;;;;;;;;;;;5135642;27;19914;-71
2024/01/29 09:40:26;;;;;;;;;;;;;;;;;;5144260;27;19923;-71
2024/01/29 09:42:52;;;;;;;;;;;;;;;;;;5128193;27;21234;-70
2024/01/29 09:45:18;;;;;;;;;;;;;;;;;;5136915;27;19918;-71
2024/01/29 09:47:44;;;;;;;;;;;;;;;;;;5134510;27;19915;-71
2024/01/29 09:50:10;;;;;;;;;;;;;;;;;;5121212;27;20010;-68
2024/01/29 09:52:37;;;;;;;;;;;;;;;;;;5140478;27;19915;-69
2024/01/29 09:55:03;;;;;;;;;;;;;;;;;;5148719;27;20454;-69
2024/01/29 09:57:29;;;;;;;;;;;;;;;;;;5129267;27;19922;-70
2024/01/29 09:59:56;;;;;;;;;;;;;;;;;;5112399;27;20482;-69
2024/01/29 10:02:22;;;;;;;;;;;;;;;;;;5133936;27;19971;-68
2024/01/29 10:04:47;;;;;;;;;;;;;;;;;;5113862;27;20009;-68
2024/01/29 10:07:13;;;;;;;;;;;;;;;;;;5132528;27;19915;-68
2024/01/29 10:09:39;;;;;;;;;;;;;;;;;;5133202;27;19907;-69
2024/01/29 10:12:05;;;;;;;;;;;;;;;;;;5136360;27;20016;-67
2024/01/29 10:14:31;;;;;;;;;;;;;;;;;;5136250;27;19930;-67
2024/01/29 10:16:57;;;;;;;;;;;;;;;;;;5123380;27;19963;-68
2024/01/29 10:19:23;;;;;;;;;;;;;;;;;;5135516;27;20318;-70
2024/01/29 10:21:49;;;;;;;;;;;;;;;;;;5119563;27;19916;-67
2024/01/29 10:24:15;;;;;;;;;;;;;;;;;;5131045;27;20425;-69
2024/01/29 10:26:41;;;;;;;;;;;;;;;;;;5141634;27;19956;-69
2024/01/29 10:29:07;;;;;;;;;;;;;;;;;;5138634;27;19919;-69
2024/01/29 10:31:33;;;;;;;;;;;;;;;;;;5150986;27;19911;-70
2024/01/29 10:33:59;;;;;;;;;;;;;;;;;;5154498;27;19960;-73
2024/01/29 10:36:25;;;;;;;;;;;;;;;;;;5144514;27;19915;-70
2024/01/29 10:38:51;;;;;;;;;;;;;;;;;;5129828;27;19907;-70
2024/01/29 10:41:17;;;;;;;;;;;;;;;;;;5134838;27;19964;-68
2024/01/29 10:43:43;;;;;;;;;;;;;;;;;;5146295;27;19911;-69
2024/01/29 10:46:09;;;;;;;;;;;;;;;;;;5149584;27;20010;-72
2024/01/29 10:48:35;;;;;;;;;;;;;;;;;;5146675;27;19918;-72
2024/01/29 10:51:01;;;;;;;;;;;;;;;;;;5140122;27;20278;-72
2024/01/29 10:53:27;;;;;;;;;;;;;;;;;;5154301;27;19919;-70
2024/01/29 10:55:53;;;;;;;;;;;;;;;;;;5146985;27;19976;-70
2024/01/29 10:58:19;;;;;;;;;;;;;;;;;;5131332;27;19911;-70
2024/01/29 11:00:45;;;;;;;;;;;;;;;;;;5138838;27;19917;-70
2024/01/29 11:03:11;;;;;;;;;;;;;;;;;;5152500;27;19911;-71
2024/01/29 11:05:36;;;;;;;;;;;;;;;;;;5134266;27;19912;-71
2024/01/29 11:08:03;;;;;;;;;;;;;;;;;;5112605;27;19918;-71
2024/01/29 11:10:29;;;;;;;;;;;;;;;;;;5131636;27;19934;-71
2024/01/29 11:12:56;;;;;;;;;;;;;;;;;;5113313;27;20341;-68
2024/01/29 11:15:22;;;;;;;;;;;;;;;;;;5132344;27;20676;-68
2024/01/29 11:17:48;;;;;;;;;;;;;;;;;;5132271;27;19915;-69
2024/01/29 11:20:14;;;;;;;;;;;;;;;;;;5132947;27;19960;-67
2024/01/29 11:22:40;;;;;;;;;;;;;;;;;;5111808;28;19911;-68
2024/01/29 11:25:08;;;;;;;;;;;;;;;;;;5132437;27;20332;-69
2024/01/29 11:27:34;;;;;;;;;;;;;;;;;;5145007;27;20484;-69
2024/01/29 11:30:00;;;;;;;;;;;;;;;;;;5136449;27;19918;-69
2024/01/29 11:32:26;;;;;;;;;;;;;;;;;;5150634;27;20351;-69
2024/01/29 11:34:56;;;;;;;;;;;;;;;;;;5125546;27;19920;-69
2024/01/29 11:37:22;;;;;;;;;;;;;;;;;;5131293;27;19950;-68
2024/01/29 11:39:50;;;;;;;;;;;;;;;;;;5138517;27;19954;-68
2024/01/29 11:42:16;;;;;;;;;;;;;;;;;;5112067;27;19938;-68
2024/01/29 11:44:42;;;;;;;;;;;;;;;;;;5123360;27;20356;-70
2024/01/29 11:47:08;;;;;;;;;;;;;;;;;;5127446;27;20511;-67
2024/01/29 11:49:34;;;;;;;;;;;;;;;;;;5125166;27;20399;-68
2024/01/29 11:52:00;;;;;;;;;;;;;;;;;;5116633;28;19962;-69
2024/01/29 11:54:26;;;;;;;;;;;;;;;;;;5130386;27;19919;-68
2024/01/29 11:56:52;;;;;;;;;;;;;;;;;;5126411;27;19937;-69
2024/01/29 11:59:18;;;;;;;;;;;;;;;;;;5118198;28;20407;-70
2024/01/29 12:01:44;;;;;;;;;;;;;;;;;;5123411;27;19955;-71
2024/01/29 12:04:10;;;;;;;;;;;;;;;;;;5146453;27;19924;-70
2024/01/29 12:06:36;;;;;;;;;;;;;;;;;;5148936;27;19911;-71
2024/01/29 12:09:02;;;;;;;;;;;;;;;;;;5144378;27;19918;-72
2024/01/29 12:11:28;;;;;;;;;;;;;;;;;;5136763;27;19912;-71
2024/01/29 12:13:56;;;;;;;;;;;;;;;;;;5137049;27;20546;-69
2024/01/29 12:16:22;;;;;;;;;;;;;;;;;;5147350;27;19919;-70
2024/01/29 12:18:49;;;;;;;;;;;;;;;;;;5147643;27;20503;-69
2024/01/29 12:21:15;;;;;;;;;;;;;;;;;;5143592;27;19912;-69
2024/01/29 12:23:41;;;;;;;;;;;;;;;;;;5138038;27;19958;-69
2024/01/29 12:26:07;;;;;;;;;;;;;;;;;;5141282;27;20349;-68
2024/01/29 12:28:33;;;;;;;;;;;;;;;;;;5141949;27;19912;-69
2024/01/29 12:31:00;;;;;;;;;;;;;;;;;;5142057;27;20415;-69
2024/01/29 12:33:30;;;;;;;;;;;;;;;;;;5140843;27;20426;-68
2024/01/29 12:35:56;;;;;;;;;;;;;;;;;;5142703;27;19915;-68
2024/01/29 12:38:25;;;;;;;;;;;;;;;;;;5150498;27;19918;-69
2024/01/29 12:40:51;;;;;;;;;;;;;;;;;;5149174;27;19922;-70
2024/01/29 12:43:17;;;;;;;;;;;;;;;;;;5135757;27;20362;-69
2024/01/29 12:45:45;;;;;;;;;;;;;;;;;;5136837;27;19921;-69
2024/01/29 12:48:11;;;;;;;;;;;;;;;;;;5117866;27;19916;-69
2024/01/29 12:50:37;;;;;;;;;;;;;;;;;;5147882;27;19918;-68
2024/01/29 12:59:14;;;;;;;;;;;;;;;;;;5070611;28;19927;-69
2024/01/29 13:01:40;;;;;;;;;;;;;;;;;;5069219;28;20552;-67
2024/01/29 13:04:40;;;;;;;;;;;;;;;;;;5089197;27;19920;-70
2024/01/29 13:07:06;;;;;;;;;;;;;;;;;;5090742;28;19920;-68
2024/01/29 13:11:20;;;;;;;;;;;;;;;;;;5090876;28;19916;-67
2024/01/29 13:15:42;;;;;;;;;;;;;;;;;;5089829;27;19913;-69
2024/01/29 13:18:09;;;;;;;;;;;;;;;;;;5090806;28;19916;-70
2024/01/29 13:20:36;;;;;;;;;;;;;;;;;;5090465;28;19908;-68
2024/01/29 13:23:04;;;;;;;;;;;;;;;;;;5089225;28;19935;-68
2024/01/29 13:27:17;;;;;;;;;;;;;;;;;;5085996;27;19916;-67
2024/01/29 13:29:43;;;;;;;;;;;;;;;;;;5084168;28;19916;-67
2024/01/29 13:35:18;;;;;;;;;;;;;;;;;;5105025;27;19930;-67
2024/01/29 13:40:39;;;;;;;;;;;;;;;;;;5070763;27;19917;-66
2024/01/29 13:43:06;;;;;;;;;;;;;;;;;;5069565;28;20015;-67
2024/01/29 13:45:32;;;;;;;;;;;;;;;;;;5069588;28;19919;-68
2024/01/29 13:49:16;;;;;;;;;;;;;;;;;;5112607;27;19919;-68
2024/01/29 13:55:43;;;;;;;;;;;;;;;;;;5090897;28;19917;-70
2024/01/29 13:59:02;;;;;;;;;;;;;;;;;;5090574;27;19917;-68
2024/01/29 14:01:57;;;;;;;;;;;;;;;;;;5090832;27;19923;-69
2024/01/29 14:04:23;;;;;;;;;;;;;;;;;;5090330;28;20335;-70
2024/01/29 14:06:49;;;;;;;;;;;;;;;;;;5090452;28;19923;-69
2024/01/29 14:10:16;;;;;;;;;;;;;;;;;;5090236;27;19927;-70
2024/01/29 14:14:56;;;;;;;;;;;;;;;;;;5090335;27;19927;-69
2024/01/29 14:22:12;;;;;;;;;;;;;;;;;;5084645;27;19931;-72
2024/01/29 14:24:38;;;;;;;;;;;;;;;;;;5070354;28;20407;-73
2024/01/29 14:27:04;;;;;;;;;;;;;;;;;;5070441;28;19913;-71
2024/01/29 14:29:30;;;;;;;;;;;;;;;;;;5070532;28;19955;-73
2024/01/29 14:31:56;;;;;;;;;;;;;;;;;;5069664;28;19909;-72
2024/01/29 14:35:40;;;;;;;;;;;;;;;;;;5091479;27;19916;-72
2024/01/29 14:38:06;;;;;;;;;;;;;;;;;;5090584;28;19912;-71
2024/01/29 14:40:49;;;;;;;;;;;;;;;;;;5089884;28;20396;-74
2024/01/29 14:44:37;;;;;;;;;;;;;;;;;;5089795;28;19923;-70
2024/01/29 14:48:25;;;;;;;;;;;;;;;;;;5089636;27;19917;-71
2024/01/29 14:50:51;;;;;;;;;;;;;;;;;;5090119;28;19916;-72
2024/01/29 14:54:18;;;;;;;;;;;;;;;;;;5089276;27;19917;-72
2024/01/29 14:56:44;;;;;;;;;;;;;;;;;;5089805;28;19947;-74
2024/01/29 14:59:10;;;;;;;;;;;;;;;;;;5090772;28;19916;-74
2024/01/29 15:01:36;;;;;;;;;;;;;;;;;;5090483;28;19909;-74
2024/01/29 15:04:03;;;;;;;;;;;;;;;;;;5089819;28;19908;-73
2024/01/29 15:06:29;;;;;;;;;;;;;;;;;;5090736;28;19915;-73
2024/01/29 15:08:55;;;;;;;;;;;;;;;;;;5090526;28;20288;-74
2024/01/29 15:11:21;;;;;;;;;;;;;;;;;;5090242;28;19969;-72
2024/01/29 15:13:47;;;;;;;;;;;;;;;;;;5088941;28;19940;-73
2024/01/29 15:16:13;;;;;;;;;;;;;;;;;;5089668;28;19931;-73
2024/01/29 15:18:39;;;;;;;;;;;;;;;;;;5088960;28;19955;-72
2024/01/29 15:21:05;;;;;;;;;;;;;;;;;;5089692;28;19912;-73
2024/01/29 15:23:31;;;;;;;;;;;;;;;;;;5087907;28;20370;-72
2024/01/29 15:25:57;;;;;;;;;;;;;;;;;;5090679;28;19912;-73
2024/01/29 15:28:23;;;;;;;;;;;;;;;;;;5090032;28;19908;-74
2024/01/29 15:30:49;;;;;;;;;;;;;;;;;;5088982;28;19916;-74
2024/01/29 15:33:15;;;;;;;;;;;;;;;;;;5090023;28;19916;-72
2024/01/29 15:35:41;;;;;;;;;;;;;;;;;;5086539;28;19909;-73
2024/01/29 15:38:07;;;;;;;;;;;;;;;;;;5088360;28;19909;-73
2024/01/29 15:40:33;;;;;;;;;;;;;;;;;;5088459;28;19940;-73
2024/01/29 15:43:02;;;;;;;;;;;;;;;;;;5088104;28;19909;-73
2024/01/29 15:45:28;;;;;;;;;;;;;;;;;;5087994;28;20007;-73
2024/01/29 15:47:58;;;;;;;;;;;;;;;;;;5087368;28;19916;-73
2024/01/29 15:50:24;;;;;;;;;;;;;;;;;;5089644;28;19954;-72
2024/01/29 15:52:50;;;;;;;;;;;;;;;;;;5097895;28;19920;-73
2024/01/29 15:55:16;;;;;;;;;;;;;;;;;;5109944;28;19908;-73
2024/01/29 15:57:42;;;;;;;;;;;;;;;;;;5109738;28;19993;-73
2024/01/29 16:00:09;;;;;;;;;;;;;;;;;;5091551;28;19908;-73
2024/01/29 16:02:35;;;;;;;;;;;;;;;;;;5109159;28;19915;-72
2024/01/29 16:05:01;;;;;;;;;;;;;;;;;;5099262;28;19908;-72
2024/01/29 16:07:27;;;;;;;;;;;;;;;;;;5078140;28;19916;-73
2024/01/29 16:09:53;;;;;;;;;;;;;;;;;;5096137;28;19916;-74
2024/01/29 16:12:21;;;;;;;;;;;;;;;;;;5095079;28;19913;-75
2024/01/29 16:14:47;;;;;;;;;;;;;;;;;;5094975;28;20372;-73
2024/01/29 16:17:13;;;;;;;;;;;;;;;;;;5096062;28;20007;-73
2024/01/29 16:19:39;;;;;;;;;;;;;;;;;;5095845;28;19908;-73
2024/01/29 16:22:05;;;;;;;;;;;;;;;;;;5095939;28;19961;-72
2024/01/29 16:24:31;;;;;;;;;;;;;;;;;;5095404;28;19908;-73
2024/01/29 16:26:57;;;;;;;;;;;;;;;;;;5096029;28;20003;-72
2024/01/29 16:29:23;;;;;;;;;;;;;;;;;;5096153;28;19933;-73
2024/01/29 16:31:52;;;;;;;;;;;;;;;;;;5095758;28;20354;-73
2024/01/29 16:34:18;;;;;;;;;;;;;;;;;;5078050;28;19920;-73
2024/01/29 16:36:44;;;;;;;;;;;;;;;;;;5096109;28;19915;-73
2024/01/29 16:39:10;;;;;;;;;;;;;;;;;;5095967;28;19914;-73
2024/01/29 16:41:36;;;;;;;;;;;;;;;;;;5096235;28;19908;-74
2024/01/29 16:44:02;;;;;;;;;;;;;;;;;;5095994;28;19944;-74
2024/01/29 16:46:31;;;;;;;;;;;;;;;;;;5095529;28;19913;-72
2024/01/29 16:48:57;;;;;;;;;;;;;;;;;;5095954;28;19916;-72
2024/01/29 16:51:23;;;;;;;;;;;;;;;;;;5096046;28;19958;-72
2024/01/29 16:53:49;;;;;;;;;;;;;;;;;;5095187;28;19963;-74
2024/01/29 16:56:15;;;;;;;;;;;;;;;;;;5095800;28;19969;-73
2024/01/29 16:58:41;;;;;;;;;;;;;;;;;;5095702;28;19908;-73
2024/01/29 17:01:07;;;;;;;;;;;;;;;;;;5077067;28;20386;-73
2024/01/29 17:03:33;;;;;;;;;;;;;;;;;;5077517;28;20402;-73
2024/01/29 17:05:59;;;;;;;;;;;;;;;;;;5095613;28;19912;-73
2024/01/29 17:08:25;;;;;;;;;;;;;;;;;;5095294;28;19909;-73
2024/01/29 17:10:51;;;;;;;;;;;;;;;;;;5095507;28;20410;-73
2024/01/29 17:13:17;;;;;;;;;;;;;;;;;;5077232;28;19916;-73
2024/01/29 17:15:43;;;;;;;;;;;;;;;;;;5093994;28;19939;-72